Atwood, Alabama
Current Conditions -  °F | °C
As of 10:56 AM on Monday 24 Nov 2014 (Local Time) from K1M4 Reporting Station
Broken Clouds Broken Clouds  
Wind Chill: 57°   Ceiling: 3000
Heat Index: 57°   Visibility: 10mi
Dew Point: 46°   Wind: 10mph
Humidity: 67%   Direction: 270°W
Pressure: 29.87"   Gusts: NA
Location:  34.3479°N, 87.9692°W
Report Text: K1M4 241656Z AUTO 27009KT 250V310 10SM BKN030 14/08 A2987 RMK AO2 T01380077 SLP129
Loading
Personal Weather Stations






























Interactive Weather Map New forecast layout! Learn more

10-Day Weather Forecast

Advertisements
Track Severe Weather on mobile